createdAt,value
2022-09-16T00:00:55.097Z,14.18
2022-09-16T00:03:38.570Z,14.13
2022-09-16T00:06:05.762Z,14.10
2022-09-16T00:08:33.260Z,14.07
2022-09-16T00:11:01.882Z,14.05
2022-09-16T00:13:29.434Z,14.03
2022-09-16T00:15:56.516Z,13.98
2022-09-16T00:18:23.744Z,13.94
2022-09-16T00:20:55.132Z,13.90
2022-09-16T00:23:24.837Z,13.89
2022-09-16T00:25:53.238Z,13.83
2022-09-16T00:28:23.991Z,13.78
2022-09-16T00:30:51.289Z,13.73
2022-09-16T00:33:19.687Z,13.69
2022-09-16T00:35:47.386Z,13.70
2022-09-16T00:38:15.215Z,13.69
2022-09-16T00:40:47.632Z,13.68
2022-09-16T00:43:16.509Z,13.71
2022-09-16T00:45:57.143Z,13.74
2022-09-16T00:48:29.948Z,13.80
2022-09-16T00:51:09.679Z,13.87
2022-09-16T00:53:46.362Z,13.93
2022-09-16T00:56:18.283Z,13.97
2022-09-16T00:58:53.253Z,13.97
2022-09-16T01:01:21.802Z,14.01
2022-09-16T01:03:52.626Z,14.04
2022-09-16T01:06:26.174Z,14.04
2022-09-16T01:08:53.553Z,14.02
2022-09-16T01:11:20.482Z,14.06
2022-09-16T01:13:49.724Z,14.05
2022-09-16T01:16:28.087Z,14.01
2022-09-16T01:19:05.101Z,14.04
2022-09-16T01:22:25.938Z,13.98
2022-09-16T01:25:24.157Z,13.99
2022-09-16T01:27:56.789Z,14.01
2022-09-16T01:30:48.021Z,13.99
2022-09-16T01:33:24.892Z,13.95
2022-09-16T01:35:55.117Z,13.99
2022-09-16T01:38:58.702Z,13.98
2022-09-16T01:41:56.682Z,13.98
2022-09-16T01:44:42.254Z,14.00
2022-09-16T01:47:44.846Z,13.96
2022-09-16T01:50:27.364Z,13.95
2022-09-16T01:53:13.414Z,13.94
2022-09-16T01:55:43.068Z,13.89
2022-09-16T01:58:25.752Z,13.86
2022-09-16T02:00:59.394Z,13.89
2022-09-16T02:03:31.545Z,13.87
2022-09-16T02:06:03.297Z,13.85
2022-09-16T02:08:41.112Z,13.83
2022-09-16T02:11:11.239Z,13.79
2022-09-16T02:13:46.004Z,13.80
2022-09-16T02:16:58.087Z,13.81
2022-09-16T02:19:31.996Z,13.73
2022-09-16T02:22:03.043Z,13.75
2022-09-16T02:24:31.463Z,13.74
2022-09-16T02:27:03.007Z,13.74
2022-09-16T02:29:41.198Z,13.71
2022-09-16T02:32:10.127Z,13.69
2022-09-16T02:34:47.305Z,13.72
2022-09-16T02:37:22.439Z,13.79
2022-09-16T02:39:57.948Z,13.80
2022-09-16T02:42:27.784Z,13.83
2022-09-16T02:44:55.557Z,13.85
2022-09-16T02:47:53.987Z,13.81
2022-09-16T02:50:35.607Z,13.80
2022-09-16T02:53:08.565Z,13.80
2022-09-16T02:55:55.959Z,13.74
2022-09-16T02:58:25.302Z,13.73
2022-09-16T03:00:55.415Z,13.68
2022-09-16T03:03:25.290Z,13.69
2022-09-16T03:06:10.346Z,13.67
2022-09-16T03:08:38.617Z,13.65
2022-09-16T03:11:30.510Z,13.60
2022-09-16T03:14:32.472Z,13.54
2022-09-16T03:17:22.657Z,13.49
2022-09-16T03:20:19.170Z,13.51
2022-09-16T03:22:53.263Z,13.44
2022-09-16T03:25:26.388Z,13.40
2022-09-16T03:28:20.339Z,13.36
2022-09-16T03:31:05.306Z,13.35
2022-09-16T03:33:58.630Z,13.33
2022-09-16T03:36:33.679Z,13.32
2022-09-16T03:39:03.486Z,13.28
2022-09-16T03:41:34.050Z,13.27
2022-09-16T03:44:04.470Z,13.28
2022-09-16T03:46:32.569Z,13.37
2022-09-16T03:48:59.678Z,13.33
2022-09-16T03:51:27.318Z,13.30
2022-09-16T03:53:55.094Z,13.26
2022-09-16T03:56:25.267Z,13.25
2022-09-16T03:58:52.599Z,13.25
2022-09-16T04:01:20.793Z,13.24
2022-09-16T04:03:48.427Z,13.19
2022-09-16T04:06:18.494Z,13.15
2022-09-16T04:08:50.718Z,13.11
2022-09-16T04:11:18.184Z,13.08
2022-09-16T04:13:45.271Z,13.06
2022-09-16T04:16:21.320Z,13.01
2022-09-16T04:18:49.065Z,12.98
2022-09-16T04:21:16.654Z,12.96
2022-09-16T04:23:45.923Z,12.94
2022-09-16T04:26:13.262Z,12.92
2022-09-16T04:28:40.413Z,12.89
2022-09-16T04:31:11.049Z,12.87
2022-09-16T04:33:39.299Z,12.82
2022-09-16T04:36:14.848Z,12.80
2022-09-16T04:38:44.680Z,12.76
2022-09-16T04:41:18.015Z,12.71
2022-09-16T04:43:45.191Z,12.68
2022-09-16T04:46:49.989Z,12.59
2022-09-16T04:49:17.543Z,12.57
2022-09-16T04:51:46.780Z,12.56
2022-09-16T04:54:16.252Z,12.55
2022-09-16T04:56:45.667Z,12.54
2022-09-16T04:59:13.120Z,12.54
2022-09-16T05:01:40.769Z,12.56
2022-09-16T05:04:09.850Z,12.58
2022-09-16T05:06:41.613Z,12.61
2022-09-16T05:09:11.572Z,12.67
2022-09-16T05:11:41.785Z,12.76
2022-09-16T05:14:14.899Z,12.83
2022-09-16T05:16:42.153Z,12.86
2022-09-16T05:19:11.565Z,12.91
2022-09-16T05:21:41.527Z,12.92
2022-09-16T05:24:11.427Z,12.96
2022-09-16T05:26:42.950Z,12.97
2022-09-16T05:29:16.894Z,13.02
2022-09-16T05:31:48.004Z,13.01
2022-09-16T05:34:18.466Z,13.06
2022-09-16T05:36:47.872Z,13.07
2022-09-16T05:39:23.625Z,13.12
2022-09-16T05:41:56.360Z,13.21
2022-09-16T05:44:26.536Z,13.26
2022-09-16T05:46:54.331Z,13.39
2022-09-16T05:49:24.173Z,13.69
2022-09-16T05:51:51.682Z,13.91
2022-09-16T05:54:19.769Z,14.14
2022-09-16T05:56:47.939Z,14.45
2022-09-16T05:59:16.259Z,14.97
2022-09-16T06:01:46.881Z,15.12
2022-09-16T06:04:15.247Z,15.05
2022-09-16T06:06:47.298Z,15.12
2022-09-16T06:09:21.278Z,15.14
2022-09-16T06:11:58.046Z,15.35
2022-09-16T06:14:29.056Z,15.50
2022-09-16T06:16:56.266Z,15.79
2022-09-16T06:19:23.410Z,15.96
2022-09-16T06:21:50.517Z,16.20
2022-09-16T06:24:19.256Z,16.73
2022-09-16T06:26:49.483Z,16.63
2022-09-16T06:29:17.642Z,16.47
2022-09-16T06:31:44.667Z,16.61
2022-09-16T06:34:18.887Z,16.61
2022-09-16T06:36:46.909Z,16.45
2022-09-16T06:39:17.513Z,16.22
2022-09-16T06:41:47.710Z,16.24
2022-09-16T06:44:14.836Z,18.41
2022-09-16T06:46:41.874Z,19.68
2022-09-16T06:49:11.178Z,20.95
2022-09-16T06:51:38.548Z,21.51
2022-09-16T06:54:08.372Z,22.04
2022-09-16T06:56:37.723Z,22.49
2022-09-16T06:59:05.533Z,20.82
2022-09-16T07:01:33.462Z,20.20
2022-09-16T07:04:06.647Z,19.60
2022-09-16T07:09:22.386Z,22.56
2022-09-16T07:11:49.869Z,24.22
2022-09-16T07:14:19.132Z,25.48
2022-09-16T07:16:46.331Z,25.29
2022-09-16T07:19:13.432Z,25.96
2022-09-16T07:21:41.749Z,26.33
2022-09-16T07:24:12.344Z,26.62
2022-09-16T07:26:43.805Z,25.37
2022-09-16T07:29:16.107Z,23.29
2022-09-16T07:31:43.950Z,21.68
2022-09-16T07:34:11.874Z,20.74
2022-09-16T07:36:47.452Z,19.79
2022-09-16T07:39:16.980Z,19.22
2022-09-16T07:41:46.182Z,18.76
2022-09-16T07:44:17.964Z,18.89
2022-09-16T07:46:51.029Z,19.34
2022-09-16T07:49:18.356Z,19.74
2022-09-16T07:51:45.394Z,20.25
2022-09-16T07:54:16.236Z,19.52
2022-09-16T07:56:46.719Z,19.05
2022-09-16T07:59:18.798Z,18.66
2022-09-16T08:01:50.695Z,18.17
2022-09-16T08:04:20.761Z,18.14
2022-09-16T08:06:48.665Z,17.75
2022-09-16T08:09:37.351Z,17.97
2022-09-16T08:12:05.274Z,18.40
2022-09-16T08:14:33.407Z,19.62
2022-09-16T08:17:05.404Z,19.81
2022-09-16T08:19:34.929Z,21.25
2022-09-16T08:22:01.928Z,22.96
2022-09-16T08:24:29.086Z,23.53
2022-09-16T08:29:28.255Z,24.79
2022-09-16T08:31:57.798Z,24.60
2022-09-16T08:34:29.481Z,23.89
2022-09-16T08:36:56.472Z,23.76
2022-09-16T08:39:23.361Z,23.40
2022-09-16T08:42:09.868Z,22.81
2022-09-16T08:45:10.084Z,21.89
2022-09-16T08:48:03.181Z,21.40
2022-09-16T08:50:38.619Z,21.70
2022-09-16T08:53:15.903Z,22.15
2022-09-16T08:55:47.972Z,22.12
2022-09-16T08:58:24.794Z,21.48
2022-09-16T09:00:59.704Z,21.18
2022-09-16T09:03:42.242Z,20.73
2022-09-16T09:06:12.072Z,20.55
2022-09-16T09:08:45.357Z,20.14
2022-09-16T09:11:39.632Z,19.76
2022-09-16T09:14:30.022Z,19.50
2022-09-16T09:17:14.886Z,19.39
2022-09-16T09:20:16.976Z,19.22
2022-09-16T09:23:44.843Z,19.13
2022-09-16T09:26:24.311Z,19.28
2022-09-16T09:28:54.490Z,19.28
2022-09-16T09:31:33.854Z,19.23
2022-09-16T09:34:39.605Z,18.99
2022-09-16T09:37:48.042Z,18.92
2022-09-16T09:40:21.920Z,18.70
2022-09-16T09:43:00.626Z,18.71
2022-09-16T09:45:31.801Z,18.68
2022-09-16T09:48:05.239Z,18.88
2022-09-16T09:51:02.767Z,19.07
2022-09-16T09:53:43.226Z,19.07
2022-09-16T09:56:40.031Z,19.20
2022-09-16T09:59:30.013Z,18.94
2022-09-16T10:01:58.351Z,18.91
2022-09-16T10:04:25.947Z,18.73
2022-09-16T10:06:55.817Z,18.66
2022-09-16T10:09:23.223Z,18.64
2022-09-16T10:11:55.134Z,18.56
2022-09-16T10:14:37.490Z,18.43
2022-09-16T10:17:16.003Z,18.29
2022-09-16T10:19:53.454Z,18.32
2022-09-16T10:22:26.833Z,18.42
2022-09-16T10:25:03.058Z,18.57
2022-09-16T10:27:34.244Z,18.59
2022-09-16T10:30:12.222Z,18.56
2022-09-16T10:33:14.632Z,18.46
2022-09-16T10:35:55.240Z,18.56
2022-09-16T10:38:26.783Z,18.43
2022-09-16T10:41:19.094Z,18.50
2022-09-16T10:43:49.598Z,18.52
2022-09-16T10:46:20.254Z,18.55
2022-09-16T10:48:49.763Z,18.53
2022-09-16T10:51:28.347Z,18.70
2022-09-16T10:54:04.928Z,18.81
2022-09-16T10:56:45.760Z,18.88
2022-09-16T10:59:16.624Z,18.70
2022-09-16T11:02:15.838Z,18.77
2022-09-16T11:04:59.199Z,18.75
2022-09-16T11:07:33.262Z,18.72
2022-09-16T11:10:21.477Z,18.74
2022-09-16T11:12:51.423Z,18.73
2022-09-16T11:15:48.185Z,18.66
2022-09-16T11:18:27.376Z,18.63
2022-09-16T11:21:13.160Z,18.68
2022-09-16T11:24:05.794Z,18.81
2022-09-16T11:26:57.342Z,18.84
2022-09-16T11:30:19.978Z,18.86
2022-09-16T11:33:01.833Z,18.89
2022-09-16T11:35:33.062Z,19.02
2022-09-16T11:38:12.863Z,19.09
2022-09-16T11:40:54.289Z,19.20
2022-09-16T11:43:40.174Z,19.15
2022-09-16T11:46:23.756Z,19.17
2022-09-16T11:48:54.226Z,19.11
2022-09-16T11:52:00.094Z,19.16
2022-09-16T11:54:52.462Z,19.28
2022-09-16T11:57:26.304Z,19.23
2022-09-16T12:00:01.371Z,19.18
2022-09-16T12:02:38.485Z,19.35
2022-09-16T12:05:27.700Z,19.46
2022-09-16T12:08:08.567Z,19.55
2022-09-16T12:10:53.957Z,19.39
2022-09-16T12:13:30.116Z,19.33
2022-09-16T12:16:05.722Z,19.35
2022-09-16T12:18:58.851Z,19.59
2022-09-16T12:21:48.481Z,19.61
2022-09-16T12:24:48.775Z,19.67
2022-09-16T12:27:24.886Z,20.04
2022-09-16T12:30:42.096Z,20.04
2022-09-16T12:33:26.309Z,20.22
2022-09-16T12:36:06.178Z,20.22
2022-09-16T12:38:33.437Z,20.33
2022-09-16T12:41:26.789Z,20.27
2022-09-16T12:44:23.449Z,20.30
2022-09-16T12:46:58.599Z,20.13
2022-09-16T12:49:40.911Z,20.14
2022-09-16T12:52:32.751Z,19.97
2022-09-16T12:55:41.998Z,19.63
2022-09-16T12:58:24.193Z,19.42
2022-09-16T13:01:09.094Z,19.40
2022-09-16T13:03:42.561Z,19.35
2022-09-16T13:06:22.306Z,19.31
2022-09-16T13:08:50.731Z,19.12
2022-09-16T13:12:16.574Z,19.10
2022-09-16T13:14:22.836Z,19.11
2022-09-16T13:17:00.799Z,19.03
2022-09-16T13:19:49.880Z,18.88
2022-09-16T13:22:32.468Z,18.75
2022-09-16T13:25:22.369Z,18.65
2022-09-16T13:28:03.775Z,18.59
2022-09-16T13:30:36.561Z,18.47
2022-09-16T13:33:26.514Z,18.29
2022-09-16T13:36:04.129Z,18.12
2022-09-16T13:38:40.133Z,18.04
2022-09-16T13:41:13.693Z,17.85
2022-09-16T13:43:42.069Z,17.79
2022-09-16T13:46:16.184Z,17.70
2022-09-16T13:49:11.167Z,17.57
2022-09-16T13:51:41.409Z,17.60
2022-09-16T13:54:28.066Z,17.54
2022-09-16T13:57:20.624Z,17.59
2022-09-16T14:00:11.958Z,17.63
2022-09-16T14:03:12.188Z,17.61
2022-09-16T14:05:53.957Z,17.67
2022-09-16T14:08:51.512Z,17.69
2022-09-16T14:11:33.632Z,17.76
2022-09-16T14:14:30.093Z,17.78
2022-09-16T14:17:16.026Z,17.90
2022-09-16T14:19:46.852Z,18.12
2022-09-16T14:22:17.074Z,18.26
2022-09-16T14:24:46.446Z,18.25
2022-09-16T14:27:27.330Z,18.13
2022-09-16T14:30:00.104Z,18.04
2022-09-16T14:32:31.978Z,18.16
2022-09-16T14:35:09.681Z,18.16
2022-09-16T14:37:39.135Z,18.18
2022-09-16T14:40:16.717Z,18.14
2022-09-16T14:43:18.699Z,18.14
2022-09-16T14:45:51.616Z,18.02
2022-09-16T14:48:24.358Z,17.97
2022-09-16T14:50:52.930Z,17.96
2022-09-16T14:53:35.435Z,17.80
2022-09-16T14:56:06.049Z,17.69
2022-09-16T14:58:35.887Z,17.71
2022-09-16T15:01:13.242Z,17.67
2022-09-16T15:04:16.127Z,17.50
2022-09-16T15:06:48.740Z,17.45
2022-09-16T15:09:23.083Z,17.41
2022-09-16T15:11:56.673Z,17.36
2022-09-16T15:14:25.318Z,17.35
2022-09-16T15:17:03.501Z,17.33
2022-09-16T15:19:41.073Z,17.28
2022-09-16T15:22:14.299Z,17.24
2022-09-16T15:24:46.085Z,17.22
2022-09-16T15:27:25.089Z,17.17
2022-09-16T15:30:00.344Z,17.14
2022-09-16T15:32:31.854Z,17.07
2022-09-16T15:35:20.026Z,16.94
2022-09-16T15:37:47.362Z,16.92
2022-09-16T15:40:23.482Z,16.85
2022-09-16T15:43:10.791Z,16.84
2022-09-16T15:45:40.645Z,16.76
2022-09-16T15:48:13.209Z,16.68
2022-09-16T15:50:44.919Z,16.63
2022-09-16T15:53:38.503Z,16.58
2022-09-16T15:56:25.126Z,16.53
2022-09-16T15:58:58.123Z,16.57
2022-09-16T16:01:37.586Z,16.52
2022-09-16T16:04:08.992Z,16.49
2022-09-16T16:06:45.799Z,16.46
2022-09-16T16:09:27.989Z,16.46
2022-09-16T16:12:00.586Z,16.44
2022-09-16T16:14:33.247Z,16.41
2022-09-16T16:17:13.990Z,16.37
2022-09-16T16:19:42.937Z,16.34
2022-09-16T16:22:13.796Z,16.36
2022-09-16T16:24:41.522Z,16.32
2022-09-16T16:27:09.108Z,16.30
2022-09-16T16:29:36.836Z,16.27
2022-09-16T16:32:08.381Z,16.23
2022-09-16T16:34:38.520Z,16.17
2022-09-16T16:37:09.056Z,16.17
2022-09-16T16:39:36.306Z,16.20
2022-09-16T16:42:08.203Z,16.14
2022-09-16T16:44:35.528Z,16.04
2022-09-16T16:47:03.326Z,15.97
2022-09-16T16:49:30.486Z,15.82
2022-09-16T16:51:58.885Z,15.71
2022-09-16T16:54:29.113Z,15.64
2022-09-16T16:56:56.419Z,15.60
2022-09-16T16:59:24.273Z,15.58
2022-09-16T17:01:54.048Z,15.52
2022-09-16T17:04:21.986Z,15.53
2022-09-16T17:06:57.886Z,15.46
2022-09-16T17:09:40.065Z,15.45
2022-09-16T17:12:09.345Z,15.43
2022-09-16T17:14:36.316Z,15.41
2022-09-16T17:17:03.399Z,15.44
2022-09-16T17:19:32.397Z,15.45
2022-09-16T17:21:59.504Z,15.43
2022-09-16T17:24:28.889Z,15.44
2022-09-16T17:26:56.280Z,15.39
2022-09-16T17:29:23.633Z,15.39
2022-09-16T17:31:50.950Z,15.37
2022-09-16T17:34:18.113Z,15.39
2022-09-16T17:36:46.935Z,15.37
2022-09-16T17:39:20.696Z,15.28
2022-09-16T17:41:51.252Z,15.18
2022-09-16T17:44:19.557Z,15.16
2022-09-16T17:46:47.137Z,15.14
2022-09-16T17:49:20.270Z,15.08
2022-09-16T17:51:50.281Z,15.04
2022-09-16T17:54:17.949Z,15.00
2022-09-16T17:56:44.932Z,14.94
2022-09-16T17:59:18.027Z,14.92
2022-09-16T18:01:48.713Z,14.85
2022-09-16T18:04:15.812Z,14.80
2022-09-16T18:06:46.697Z,14.79
2022-09-16T18:09:16.204Z,14.74
2022-09-16T18:11:44.242Z,14.68
2022-09-16T18:14:13.183Z,14.64
2022-09-16T18:16:41.716Z,14.55
2022-09-16T18:19:11.234Z,14.52
2022-09-16T18:21:38.441Z,14.46
2022-09-16T18:24:13.136Z,14.42
2022-09-16T18:26:42.302Z,14.41
2022-09-16T18:29:16.334Z,14.40
2022-09-16T18:31:49.173Z,14.36
2022-09-16T18:34:17.868Z,14.34
2022-09-16T18:36:45.576Z,14.29
2022-09-16T18:39:15.917Z,14.28
2022-09-16T18:41:45.255Z,14.29
2022-09-16T18:44:15.579Z,14.27
2022-09-16T18:46:43.270Z,14.27
2022-09-16T18:49:13.027Z,14.29
2022-09-16T18:51:46.119Z,14.25
2022-09-16T18:54:28.254Z,14.24
2022-09-16T18:57:00.197Z,14.16
2022-09-16T18:59:36.786Z,14.10
2022-09-16T19:02:04.295Z,14.08
2022-09-16T19:04:38.562Z,14.01
2022-09-16T19:07:10.621Z,13.96
2022-09-16T19:09:41.581Z,13.92
2022-09-16T19:12:13.222Z,13.93
2022-09-16T19:14:41.087Z,13.88
2022-09-16T19:17:08.638Z,13.88
2022-09-16T19:19:35.899Z,13.85
2022-09-16T19:22:06.125Z,13.81
2022-09-16T19:24:34.588Z,13.76
2022-09-16T19:27:01.587Z,13.75
2022-09-16T19:29:28.807Z,13.64
2022-09-16T19:31:56.387Z,13.65
2022-09-16T19:34:23.416Z,13.71
2022-09-16T19:36:50.837Z,13.71
2022-09-16T19:39:18.077Z,13.67
2022-09-16T19:41:47.424Z,13.61
2022-09-16T19:44:17.849Z,13.58
2022-09-16T19:46:49.074Z,13.55
2022-09-16T19:49:20.129Z,13.55
2022-09-16T19:51:49.548Z,13.53
2022-09-16T19:54:19.468Z,13.51
2022-09-16T19:56:50.848Z,13.52
2022-09-16T19:59:19.306Z,13.50
2022-09-16T20:01:49.180Z,13.46
2022-09-16T20:04:19.938Z,13.39
2022-09-16T20:06:48.043Z,13.32
2022-09-16T20:09:15.310Z,13.26
2022-09-16T20:11:45.703Z,13.15
2022-09-16T20:14:16.309Z,13.08
2022-09-16T20:16:46.437Z,12.99
2022-09-16T20:19:15.626Z,12.98
2022-09-16T20:21:45.411Z,12.99
2022-09-16T20:24:18.550Z,12.95
2022-09-16T20:26:53.472Z,12.90
2022-09-16T20:29:21.301Z,12.87
2022-09-16T20:31:50.198Z,12.84
2022-09-16T20:34:17.635Z,12.79
2022-09-16T20:36:46.327Z,12.71
2022-09-16T20:39:16.014Z,12.73
2022-09-16T20:41:45.881Z,12.69
2022-09-16T20:44:15.855Z,12.62
2022-09-16T20:46:48.230Z,12.64
2022-09-16T20:49:17.337Z,12.66
2022-09-16T20:51:44.966Z,12.64
2022-09-16T20:54:14.961Z,12.66
2022-09-16T20:56:44.898Z,12.61
2022-09-16T20:59:13.618Z,12.59
2022-09-16T21:01:41.734Z,12.54
2022-09-16T21:04:13.168Z,12.55
2022-09-16T21:06:40.160Z,12.57
2022-09-16T21:09:10.353Z,12.59
2022-09-16T21:11:40.895Z,12.61
2022-09-16T21:14:07.934Z,12.57
2022-09-16T21:16:37.150Z,12.62
2022-09-16T21:19:12.825Z,12.65
2022-09-16T21:21:42.402Z,12.60
2022-09-16T21:24:10.069Z,12.55
2022-09-16T21:26:40.901Z,12.54
2022-09-16T21:29:11.461Z,12.53
2022-09-16T21:31:41.354Z,12.56
2022-09-16T21:34:14.382Z,12.53
2022-09-16T21:36:42.043Z,12.54
2022-09-16T21:39:09.099Z,12.53
2022-09-16T21:41:38.713Z,12.60
2022-09-16T21:44:06.805Z,12.60
2022-09-16T21:46:39.722Z,12.63
2022-09-16T21:49:13.603Z,12.60
2022-09-16T21:51:40.650Z,12.57
2022-09-16T21:54:09.685Z,12.56
2022-09-16T21:56:38.807Z,12.57
2022-09-16T21:59:06.617Z,12.59
2022-09-16T22:01:36.970Z,12.62
2022-09-16T22:04:12.384Z,12.64
2022-09-16T22:06:40.130Z,12.65
2022-09-16T22:09:08.946Z,12.62
2022-09-16T22:11:38.227Z,12.66
2022-09-16T22:14:08.545Z,12.66
2022-09-16T22:16:37.915Z,12.67
2022-09-16T22:19:17.192Z,12.71
2022-09-16T22:21:47.114Z,12.74
2022-09-16T22:24:17.365Z,12.76
2022-09-16T22:26:44.518Z,12.82
2022-09-16T22:29:12.659Z,12.83
2022-09-16T22:31:42.013Z,12.78
2022-09-16T22:34:09.736Z,12.78
2022-09-16T22:36:40.680Z,12.79
2022-09-16T22:39:12.295Z,12.74
2022-09-16T22:41:39.491Z,12.70
2022-09-16T22:44:06.569Z,12.66
2022-09-16T22:46:39.387Z,12.62
2022-09-16T22:49:06.539Z,12.60
2022-09-16T22:51:33.401Z,12.59
2022-09-16T22:54:00.254Z,12.62
2022-09-16T22:56:32.160Z,12.57
2022-09-16T22:59:02.073Z,12.57
2022-09-16T23:01:35.457Z,12.54
2022-09-16T23:04:04.466Z,12.48
2022-09-16T23:06:33.505Z,12.47
2022-09-16T23:09:01.542Z,12.46
2022-09-16T23:11:32.501Z,12.42
2022-09-16T23:14:04.245Z,12.39
2022-09-16T23:16:34.406Z,12.39
2022-09-16T23:19:04.328Z,12.38
2022-09-16T23:21:32.567Z,12.31
2022-09-16T23:24:02.115Z,12.30
2022-09-16T23:26:32.462Z,12.25
2022-09-16T23:29:01.914Z,12.25
2022-09-16T23:31:32.145Z,12.26
2022-09-16T23:33:59.731Z,12.24
2022-09-16T23:36:27.853Z,12.18
2022-09-16T23:38:55.559Z,12.16
2022-09-16T23:41:27.410Z,12.12
2022-09-16T23:43:56.151Z,12.11
2022-09-16T23:46:26.143Z,12.12
2022-09-16T23:48:54.339Z,12.13
2022-09-16T23:51:27.799Z,12.10
2022-09-16T23:53:57.044Z,12.07
2022-09-16T23:56:24.784Z,12.06
2022-09-16T23:58:52.190Z,12.02
